createdAt,value
2018-06-21T00:00:22.518Z,11.83
2018-06-21T00:04:24.765Z,12.00
2018-06-21T00:08:27.039Z,12.80
2018-06-21T00:12:29.306Z,11.57
2018-06-21T00:16:31.566Z,13.23
2018-06-21T00:20:34.815Z,11.10
2018-06-21T00:24:37.103Z,12.57
2018-06-21T00:28:39.374Z,12.70
2018-06-21T00:32:41.654Z,13.83
2018-06-21T00:36:43.946Z,13.77
2018-06-21T00:40:46.206Z,13.90
2018-06-21T00:44:48.986Z,13.83
2018-06-21T00:48:51.262Z,14.50
2018-06-21T00:52:54.578Z,13.83
2018-06-21T00:56:56.856Z,15.90
2018-06-21T01:00:59.610Z,16.27
2018-06-21T01:05:01.906Z,15.30
2018-06-21T01:09:05.587Z,15.47
2018-06-21T01:13:07.833Z,14.40
2018-06-21T01:17:10.098Z,12.33
2018-06-21T01:21:12.377Z,12.30
2018-06-21T01:25:14.650Z,13.10
2018-06-21T01:29:16.913Z,11.80
2018-06-21T01:33:19.186Z,13.80
2018-06-21T01:37:21.427Z,14.33
2018-06-21T01:41:23.858Z,14.93
2018-06-21T01:45:26.145Z,14.57
2018-06-21T01:49:28.414Z,14.00
2018-06-21T01:53:31.050Z,15.20
2018-06-21T01:57:33.330Z,13.83
2018-06-21T02:01:35.588Z,13.30
2018-06-21T02:05:37.848Z,14.33
2018-06-21T02:09:40.118Z,13.63
2018-06-21T02:13:42.370Z,14.67
2018-06-21T02:17:44.658Z,14.00
2018-06-21T02:21:46.930Z,16.37
2018-06-21T02:25:49.213Z,13.33
2018-06-21T02:29:51.470Z,12.80
2018-06-21T02:33:53.758Z,12.77
2018-06-21T02:37:56.059Z,10.63
2018-06-21T02:41:58.315Z,7.70
2018-06-21T02:46:00.590Z,7.50
2018-06-21T02:50:02.851Z,8.20
2018-06-21T02:54:05.191Z,8.30
2018-06-21T02:58:07.432Z,8.33
2018-06-21T03:02:09.688Z,9.13
2018-06-21T03:06:12.068Z,9.90
2018-06-21T03:10:14.322Z,8.20
2018-06-21T03:14:16.563Z,9.07
2018-06-21T03:18:18.807Z,8.70
2018-06-21T03:22:21.057Z,8.23
2018-06-21T03:26:23.306Z,6.80
2018-06-21T03:30:25.593Z,7.07
2018-06-21T03:34:27.878Z,6.53
2018-06-21T03:38:30.144Z,7.00
2018-06-21T03:42:32.387Z,7.10
2018-06-21T03:46:35.394Z,6.80
2018-06-21T03:50:37.711Z,6.67
2018-06-21T03:54:39.974Z,6.23
2018-06-21T03:58:42.205Z,6.80
2018-06-21T04:02:44.462Z,6.30
2018-06-21T04:06:46.733Z,6.33
2018-06-21T04:10:49.021Z,5.53
2018-06-21T04:14:51.254Z,5.60
2018-06-21T04:18:54.150Z,5.67
2018-06-21T04:22:56.400Z,7.30
2018-06-21T04:26:58.654Z,6.30
2018-06-21T04:31:00.990Z,7.70
2018-06-21T04:35:03.245Z,6.40
2018-06-21T04:39:06.130Z,7.10
2018-06-21T04:43:08.490Z,5.70
2018-06-21T04:47:10.786Z,6.07
2018-06-21T04:51:13.054Z,4.87
2018-06-21T04:55:15.310Z,4.80
2018-06-21T04:59:17.573Z,5.00
2018-06-21T05:03:19.826Z,4.87
2018-06-21T05:07:22.149Z,4.07
2018-06-21T05:11:24.420Z,4.03
2018-06-21T05:15:26.750Z,3.87
2018-06-21T05:19:28.982Z,3.70
2018-06-21T05:23:31.310Z,3.73
2018-06-21T05:27:33.529Z,3.10
2018-06-21T05:31:35.698Z,2.80
2018-06-21T05:35:37.888Z,3.03
2018-06-21T05:39:40.052Z,3.23
2018-06-21T05:43:42.220Z,2.80
2018-06-21T05:47:44.412Z,2.90
2018-06-21T05:51:46.751Z,2.57
2018-06-21T05:55:48.936Z,2.37
2018-06-21T05:59:51.096Z,3.60
2018-06-21T06:03:53.384Z,2.67
2018-06-21T06:07:55.552Z,2.43
2018-06-21T06:11:57.736Z,2.80
2018-06-21T06:15:59.908Z,2.13
2018-06-21T06:20:02.399Z,2.20
2018-06-21T06:24:04.593Z,2.40
2018-06-21T06:28:06.788Z,3.07
2018-06-21T06:32:09.003Z,1.63
2018-06-21T06:36:11.193Z,2.30
2018-06-21T06:40:13.452Z,1.70
2018-06-21T06:44:15.949Z,2.03
2018-06-21T06:48:18.131Z,1.53
2018-06-21T06:52:20.308Z,2.50
2018-06-21T06:56:22.487Z,1.80
2018-06-21T07:00:24.706Z,1.87
2018-06-21T07:04:26.896Z,2.70
2018-06-21T07:08:29.129Z,2.23
2018-06-21T07:12:31.272Z,2.27
2018-06-21T07:16:33.456Z,2.40
2018-06-21T07:20:35.635Z,2.30
2018-06-21T07:24:37.899Z,2.80
2018-06-21T07:28:40.157Z,2.57
2018-06-21T07:32:42.308Z,2.50
2018-06-21T07:36:44.501Z,2.23
2018-06-21T07:40:46.664Z,3.10
2018-06-21T07:44:48.840Z,2.83
2018-06-21T07:48:51.137Z,2.93
2018-06-21T07:52:53.320Z,2.60
2018-06-21T07:56:55.559Z,3.57
2018-06-21T08:00:57.869Z,4.00
2018-06-21T08:05:00.121Z,2.50
2018-06-21T08:09:02.312Z,2.87
2018-06-21T08:13:04.994Z,2.90
2018-06-21T08:17:07.450Z,2.90
2018-06-21T08:21:09.752Z,2.50
2018-06-21T08:25:11.941Z,2.50
2018-06-21T08:29:14.258Z,2.90
2018-06-21T08:33:16.484Z,2.90
2018-06-21T08:37:18.661Z,3.23
2018-06-21T08:41:21.147Z,2.17
2018-06-21T08:45:23.397Z,1.70
2018-06-21T08:49:25.600Z,1.93
2018-06-21T08:53:27.768Z,1.87
2018-06-21T08:57:29.971Z,2.43
2018-06-21T09:01:32.169Z,1.60
2018-06-21T09:05:34.333Z,1.87
2018-06-21T09:09:36.550Z,2.67
2018-06-21T09:13:38.692Z,1.50
2018-06-21T09:17:40.906Z,2.83
2018-06-21T09:21:43.113Z,1.80
2018-06-21T09:25:45.520Z,1.83
2018-06-21T09:29:47.699Z,2.13
2018-06-21T09:33:49.893Z,2.00
2018-06-21T09:37:57.885Z,2.90
2018-06-21T09:42:05.887Z,1.60
2018-06-21T09:46:13.659Z,1.90
2018-06-21T09:50:16.962Z,2.03
2018-06-21T09:54:19.132Z,1.97
2018-06-21T09:58:21.321Z,1.43
2018-06-21T10:02:23.511Z,1.60
2018-06-21T10:06:25.715Z,2.43
2018-06-21T10:10:27.947Z,2.20
2018-06-21T10:14:30.143Z,1.50
2018-06-21T10:18:32.352Z,1.57
2018-06-21T10:22:34.520Z,1.60
2018-06-21T10:26:36.960Z,1.73
2018-06-21T10:30:39.764Z,2.17
2018-06-21T10:34:41.994Z,1.80
2018-06-21T10:38:44.434Z,1.73
2018-06-21T10:42:46.643Z,1.80
2018-06-21T10:46:48.836Z,2.47
2018-06-21T10:50:51.348Z,1.60
2018-06-21T10:54:54.054Z,1.43
2018-06-21T10:58:56.300Z,1.30
2018-06-21T11:02:58.480Z,1.93
2018-06-21T11:07:00.644Z,2.10
2018-06-21T11:11:02.880Z,2.07
2018-06-21T11:15:05.148Z,2.00
2018-06-21T11:19:07.325Z,1.67
2018-06-21T11:23:09.508Z,1.83
2018-06-21T11:27:11.708Z,1.50
2018-06-21T11:31:13.892Z,1.17
2018-06-21T11:35:16.080Z,1.43
2018-06-21T11:39:18.240Z,1.40
2018-06-21T11:43:20.429Z,1.37
2018-06-21T11:47:22.656Z,1.50
2018-06-21T11:51:25.756Z,1.10
2018-06-21T11:55:27.920Z,1.27
2018-06-21T11:59:31.132Z,1.80
2018-06-21T12:03:33.309Z,1.43
2018-06-21T12:07:35.491Z,1.53
2018-06-21T12:11:37.688Z,2.23
2018-06-21T12:15:39.881Z,1.73
2018-06-21T12:19:42.072Z,1.73
2018-06-21T12:23:44.244Z,2.10
2018-06-21T12:27:46.623Z,1.50
2018-06-21T12:31:48.879Z,1.40
2018-06-21T12:35:51.056Z,1.50
2018-06-21T12:39:53.265Z,1.20
2018-06-21T12:43:55.517Z,1.80
2018-06-21T12:47:57.732Z,1.17
2018-06-21T12:51:59.936Z,1.70
2018-06-21T12:56:02.100Z,1.97
2018-06-21T13:00:04.408Z,0.90
2018-06-21T13:04:06.912Z,1.50
2018-06-21T13:08:09.088Z,1.07
2018-06-21T13:12:28.105Z,1.00
2018-06-21T13:16:30.324Z,1.13
2018-06-21T13:20:33.618Z,0.63
2018-06-21T13:24:35.804Z,0.90
2018-06-21T13:28:38.144Z,0.97
2018-06-21T13:32:40.429Z,1.13
2018-06-21T13:36:42.628Z,1.13
2018-06-21T13:40:44.992Z,1.13
2018-06-21T13:44:47.168Z,1.00
2018-06-21T13:48:49.380Z,1.27
2018-06-21T13:52:51.564Z,1.33
2018-06-21T13:56:53.796Z,1.30
2018-06-21T14:00:56.068Z,1.20
2018-06-21T14:04:58.816Z,0.90
2018-06-21T14:09:01.017Z,1.00
2018-06-21T14:13:03.233Z,1.83
2018-06-21T14:17:05.480Z,0.93
2018-06-21T14:21:07.665Z,1.30
2018-06-21T14:25:10.009Z,1.23
2018-06-21T14:29:12.248Z,1.20
2018-06-21T14:33:14.554Z,1.80
2018-06-21T14:37:16.764Z,1.67
2018-06-21T14:41:18.948Z,1.93
2018-06-21T14:45:21.145Z,1.43
2018-06-21T14:49:23.319Z,1.07
2018-06-21T14:53:25.531Z,1.30
2018-06-21T14:57:27.732Z,1.90
2018-06-21T15:01:29.937Z,1.10
2018-06-21T15:05:32.165Z,1.10
2018-06-21T15:09:34.523Z,1.20
2018-06-21T15:13:36.752Z,1.20
2018-06-21T15:17:38.970Z,1.33
2018-06-21T15:21:41.195Z,1.80
2018-06-21T15:25:43.477Z,1.23
2018-06-21T15:29:45.685Z,1.27
2018-06-21T15:33:47.860Z,1.40
2018-06-21T15:37:50.132Z,1.40
2018-06-21T15:41:52.328Z,1.70
2018-06-21T15:45:54.584Z,1.00
2018-06-21T15:49:56.792Z,1.47
2018-06-21T15:53:59.234Z,1.37
2018-06-21T15:58:01.467Z,1.40
2018-06-21T16:02:03.696Z,1.57
2018-06-21T16:06:05.945Z,1.40
2018-06-21T16:10:08.138Z,2.07
2018-06-21T16:14:10.423Z,1.30
2018-06-21T16:18:12.608Z,2.37
2018-06-21T16:22:14.829Z,2.00
2018-06-21T16:26:17.028Z,1.20
2018-06-21T16:30:19.260Z,1.30
2018-06-21T16:34:21.624Z,1.37
2018-06-21T16:42:47.227Z,1.33
2018-06-21T16:46:49.419Z,1.93
2018-06-21T16:50:51.678Z,2.40
2018-06-21T16:54:53.804Z,1.90
2018-06-21T16:58:56.040Z,2.10
2018-06-21T17:02:58.239Z,2.40
2018-06-21T17:07:00.453Z,2.00
2018-06-21T17:11:02.688Z,1.77
2018-06-21T17:15:05.186Z,1.80
2018-06-21T17:19:07.820Z,1.70
2018-06-21T17:23:10.012Z,2.13
2018-06-21T17:27:12.205Z,1.97
2018-06-21T17:31:14.419Z,1.57
2018-06-21T17:35:16.628Z,1.67
2018-06-21T17:39:18.837Z,1.73
2018-06-21T17:43:21.016Z,2.30
2018-06-21T17:47:23.234Z,1.90
2018-06-21T17:51:25.457Z,1.83
2018-06-21T17:55:27.676Z,2.40
2018-06-21T17:59:29.892Z,1.90
2018-06-21T18:03:32.072Z,2.20
2018-06-21T18:07:34.356Z,2.37
2018-06-21T18:11:36.568Z,2.00
2018-06-21T18:15:38.776Z,2.47
2018-06-21T18:19:41.020Z,2.27
2018-06-21T18:23:43.200Z,2.20
2018-06-21T18:27:45.656Z,3.17
2018-06-21T18:31:47.879Z,2.60
2018-06-21T18:35:50.172Z,2.37
2018-06-21T18:39:52.356Z,2.83
2018-06-21T18:43:54.607Z,3.00
2018-06-21T18:47:57.656Z,1.70
2018-06-21T18:51:59.841Z,2.60
2018-06-21T18:56:02.061Z,3.27
2018-06-21T19:00:06.437Z,1.93
2018-06-21T19:04:08.639Z,2.43
2018-06-21T19:08:16.820Z,3.43
2018-06-21T19:12:19.185Z,2.23
2018-06-21T19:16:21.464Z,3.40
2018-06-21T19:20:23.684Z,2.60
2018-06-21T19:24:26.032Z,2.90
2018-06-21T19:28:28.240Z,2.10
2018-06-21T19:32:30.436Z,2.40
2018-06-21T19:36:32.716Z,2.43
2018-06-21T19:40:34.857Z,3.27
2018-06-21T19:44:37.048Z,2.20
2018-06-21T19:48:39.437Z,2.03
2018-06-21T19:52:41.648Z,2.57
2018-06-21T19:56:44.520Z,2.60
2018-06-21T20:00:47.872Z,2.50
2018-06-21T20:04:52.052Z,2.27
2018-06-21T20:08:54.262Z,2.70
2018-06-21T20:12:56.448Z,2.57
2018-06-21T20:16:58.688Z,2.50
2018-06-21T20:21:00.905Z,2.20
2018-06-21T20:25:03.253Z,1.70
2018-06-21T20:29:11.173Z,1.73
2018-06-21T20:33:13.401Z,1.80
2018-06-21T20:37:15.635Z,1.57
2018-06-21T20:41:17.845Z,2.00
2018-06-21T20:45:20.048Z,1.73
2018-06-21T20:49:22.264Z,2.00
2018-06-21T20:53:24.450Z,1.40
2018-06-21T20:57:27.606Z,1.43
2018-06-21T21:01:29.805Z,2.43
2018-06-21T21:05:32.008Z,1.80
2018-06-21T21:09:34.196Z,1.23
2018-06-21T21:13:36.392Z,1.90
2018-06-21T21:17:38.614Z,2.53
2018-06-21T21:21:40.807Z,2.23
2018-06-21T21:25:42.992Z,2.53
2018-06-21T21:29:45.177Z,2.50
2018-06-21T21:33:47.371Z,3.00
2018-06-21T21:37:49.573Z,2.70
2018-06-21T21:41:51.745Z,3.27
2018-06-21T21:45:53.928Z,2.80
2018-06-21T21:49:56.312Z,2.57
2018-06-21T21:53:58.494Z,2.40
2018-06-21T21:58:00.611Z,2.57
2018-06-21T22:02:03.172Z,1.93
2018-06-21T22:06:05.905Z,2.47
2018-06-21T22:10:08.164Z,1.77
2018-06-21T22:14:10.297Z,3.10
2018-06-21T22:18:12.508Z,2.10
2018-06-21T22:22:14.656Z,2.30
2018-06-21T22:26:16.842Z,2.60
2018-06-21T22:30:19.012Z,2.87
2018-06-21T22:34:21.240Z,3.33
2018-06-21T22:38:23.413Z,4.00
2018-06-21T22:42:25.682Z,3.20
2018-06-21T22:46:27.816Z,3.97
2018-06-21T22:50:35.170Z,3.40
2018-06-21T22:54:47.354Z,4.20
2018-06-21T22:58:51.439Z,3.40
2018-06-21T23:02:53.622Z,3.13
2018-06-21T23:06:55.792Z,3.10
2018-06-21T23:10:57.964Z,4.07
2018-06-21T23:15:00.164Z,2.73
2018-06-21T23:19:13.918Z,2.67
2018-06-21T23:23:16.105Z,2.87
2018-06-21T23:27:18.289Z,3.13
2018-06-21T23:31:20.452Z,4.40
2018-06-21T23:35:22.632Z,2.20
2018-06-21T23:39:24.824Z,3.53
2018-06-21T23:43:26.987Z,4.20
2018-06-21T23:47:29.220Z,3.30
2018-06-21T23:51:31.404Z,3.13
2018-06-21T23:55:33.608Z,2.57
2018-06-21T23:59:35.800Z,3.30
